createdAt,value
2023-04-22T00:00:43.941Z,100557.60
2023-04-22T00:03:23.430Z,100555.72
2023-04-22T00:05:56.158Z,100553.77
2023-04-22T00:08:28.266Z,100550.11
2023-04-22T00:11:00.350Z,100548.51
2023-04-22T00:13:32.687Z,100548.20
2023-04-22T00:16:05.605Z,100541.94
2023-04-22T00:18:38.527Z,100541.05
2023-04-22T00:21:10.589Z,100538.54
2023-04-22T00:23:48.070Z,100540.11
2023-04-22T00:26:20.598Z,100526.13
2023-04-22T00:28:51.576Z,100530.29
2023-04-22T00:31:23.983Z,100515.02
2023-04-22T00:33:56.270Z,100533.09
2023-04-22T00:36:28.886Z,100533.86
2023-04-22T00:39:00.872Z,100528.70
2023-04-22T00:41:33.955Z,100529.21
2023-04-22T00:44:06.490Z,100526.33
2023-04-22T00:46:40.205Z,100526.96
2023-04-22T00:49:12.568Z,100522.20
2023-04-22T00:51:44.731Z,100526.42
2023-04-22T00:54:16.717Z,100526.31
2023-04-22T00:56:49.105Z,100522.11
2023-04-22T00:59:21.481Z,100528.20
2023-04-22T01:01:55.027Z,100526.92
2023-04-22T01:04:27.759Z,100527.54
2023-04-22T01:06:58.762Z,100529.27
2023-04-22T01:09:31.611Z,100529.16
2023-04-22T01:12:03.852Z,100530.62
2023-04-22T01:14:36.511Z,100513.23
2023-04-22T01:17:10.183Z,100530.45
2023-04-22T01:19:43.527Z,100531.89
2023-04-22T01:22:17.764Z,100529.40
2023-04-22T01:24:50.121Z,100531.13
2023-04-22T01:27:22.369Z,100533.19
2023-04-22T01:29:54.920Z,100530.61
2023-04-22T01:32:27.261Z,100530.91
2023-04-22T01:35:00.286Z,100535.66
2023-04-22T01:37:33.407Z,100532.88
2023-04-22T01:40:05.925Z,100532.35
2023-04-22T01:42:38.195Z,100529.60
2023-04-22T01:45:13.154Z,100532.04
2023-04-22T01:47:46.376Z,100528.38
2023-04-22T01:50:18.898Z,100532.59
2023-04-22T01:52:51.350Z,100528.23
2023-04-22T01:55:23.522Z,100527.95
2023-04-22T01:57:55.618Z,100526.75
2023-04-22T02:00:27.132Z,100527.22
2023-04-22T02:02:59.573Z,100524.54
2023-04-22T02:05:31.807Z,100519.63
2023-04-22T02:08:03.849Z,100518.56
2023-04-22T02:10:38.181Z,100521.40
2023-04-22T02:13:11.088Z,100520.86
2023-04-22T02:15:43.598Z,100520.85
2023-04-22T02:18:18.054Z,100516.76
2023-04-22T02:20:50.552Z,100517.05
2023-04-22T02:23:21.293Z,100510.84
2023-04-22T02:25:55.991Z,100513.19
2023-04-22T02:28:27.879Z,100512.35
2023-04-22T02:30:59.796Z,100508.80
2023-04-22T02:33:32.073Z,100506.14
2023-04-22T02:36:04.161Z,100505.35
2023-04-22T02:38:36.162Z,100503.77
2023-04-22T02:41:08.425Z,100504.61
2023-04-22T02:43:46.096Z,100502.52
2023-04-22T02:46:18.784Z,100504.32
2023-04-22T02:48:50.852Z,100505.38
2023-04-22T02:51:23.289Z,100501.23
2023-04-22T02:53:55.580Z,100500.04
2023-04-22T02:56:27.693Z,100500.69
2023-04-22T02:58:59.917Z,100497.11
2023-04-22T03:01:32.309Z,100492.98
2023-04-22T03:04:05.800Z,100492.96
2023-04-22T03:06:37.964Z,100491.63
2023-04-22T03:09:10.273Z,100492.81
2023-04-22T03:11:42.888Z,100495.67
2023-04-22T03:14:16.754Z,100496.84
2023-04-22T03:16:48.948Z,100494.39
2023-04-22T03:19:21.428Z,100493.42
2023-04-22T03:21:54.222Z,100489.64
2023-04-22T03:24:24.747Z,100487.38
2023-04-22T03:26:57.417Z,100491.16
2023-04-22T03:29:29.557Z,100485.36
2023-04-22T03:32:02.021Z,100485.52
2023-04-22T03:34:36.991Z,100483.85
2023-04-22T03:37:10.206Z,100478.89
2023-04-22T03:39:42.523Z,100479.44
2023-04-22T03:42:16.678Z,100480.00
2023-04-22T03:44:48.972Z,100479.15
2023-04-22T03:47:22.835Z,100478.12
2023-04-22T03:49:58.587Z,100479.96
2023-04-22T03:52:30.758Z,100480.66
2023-04-22T03:55:04.990Z,100479.61
2023-04-22T03:57:39.239Z,100479.23
2023-04-22T04:00:13.906Z,100483.05
2023-04-22T04:02:49.891Z,100482.77
2023-04-22T04:05:23.697Z,100488.52
2023-04-22T04:07:56.627Z,100484.99
2023-04-22T04:10:29.999Z,100480.97
2023-04-22T04:13:07.912Z,100478.29
2023-04-22T04:15:49.393Z,100476.30
2023-04-22T04:18:27.187Z,100478.86
2023-04-22T04:21:19.408Z,100472.70
2023-04-22T04:23:55.962Z,100470.33
2023-04-22T04:26:35.327Z,100469.83
2023-04-22T04:29:14.553Z,100476.64
2023-04-22T04:31:49.013Z,100477.74
2023-04-22T04:34:21.911Z,100481.40
2023-04-22T04:36:54.821Z,100473.38
2023-04-22T04:39:33.057Z,100470.50
2023-04-22T04:42:09.681Z,100477.27
2023-04-22T04:44:49.277Z,100467.05
2023-04-22T04:47:22.772Z,100474.23
2023-04-22T04:49:58.578Z,100479.23
2023-04-22T04:52:34.055Z,100481.36
2023-04-22T04:55:47.581Z,100479.01
2023-04-22T04:58:26.044Z,100481.21
2023-04-22T05:01:10.896Z,100480.08
2023-04-22T05:03:43.465Z,100477.06
2023-04-22T05:06:18.056Z,100474.14
2023-04-22T05:08:56.926Z,100476.42
2023-04-22T05:11:29.215Z,100480.36
2023-04-22T05:14:02.507Z,100478.16
2023-04-22T05:16:38.636Z,100478.34
2023-04-22T05:19:10.792Z,100478.20
2023-04-22T05:21:43.189Z,100479.60
2023-04-22T05:24:15.414Z,100479.88
2023-04-22T05:26:46.573Z,100478.60
2023-04-22T05:29:21.508Z,100484.70
2023-04-22T05:31:54.845Z,100485.72
2023-04-22T05:34:27.202Z,100488.00
2023-04-22T05:36:58.340Z,100487.64
2023-04-22T05:39:30.763Z,100486.39
2023-04-22T05:42:04.229Z,100488.84
2023-04-22T05:44:36.952Z,100487.46
2023-04-22T05:47:09.132Z,100482.33
2023-04-22T05:49:41.609Z,100483.92
2023-04-22T05:52:23.040Z,100485.96
2023-04-22T05:55:02.222Z,100486.42
2023-04-22T05:57:34.668Z,100484.40
2023-04-22T06:00:09.300Z,100488.55
2023-04-22T06:02:45.358Z,100484.20
2023-04-22T06:05:18.387Z,100485.38
2023-04-22T06:07:51.407Z,100486.66
2023-04-22T06:10:22.146Z,100489.60
2023-04-22T06:12:54.388Z,100489.77
2023-04-22T06:15:26.712Z,100490.31
2023-04-22T06:17:59.426Z,100492.45
2023-04-22T06:20:32.802Z,100490.16
2023-04-22T06:23:06.127Z,100484.52
2023-04-22T06:25:38.335Z,100487.04
2023-04-22T06:28:11.376Z,100480.36
2023-04-22T06:30:48.808Z,100489.33
2023-04-22T06:33:23.979Z,100478.96
2023-04-22T06:35:56.474Z,100485.87
2023-04-22T06:38:28.688Z,100487.02
2023-04-22T06:41:18.068Z,100484.83
2023-04-22T06:43:53.427Z,100483.15
2023-04-22T06:46:46.585Z,100482.29
2023-04-22T06:49:27.976Z,100481.52
2023-04-22T06:52:03.262Z,100479.25
2023-04-22T06:54:36.144Z,100478.39
2023-04-22T06:57:08.821Z,100478.83
2023-04-22T06:59:41.863Z,100471.50
2023-04-22T07:02:15.045Z,100473.85
2023-04-22T07:04:49.317Z,100476.23
2023-04-22T07:07:21.666Z,100473.14
2023-04-22T07:09:56.821Z,100469.60
2023-04-22T07:12:32.157Z,100473.21
2023-04-22T07:15:04.597Z,100469.80
2023-04-22T07:17:36.915Z,100470.48
2023-04-22T07:20:11.480Z,100469.84
2023-04-22T07:22:43.958Z,100474.09
2023-04-22T07:25:16.296Z,100471.83
2023-04-22T07:27:49.063Z,100472.53
2023-04-22T07:30:21.662Z,100465.00
2023-04-22T07:32:53.841Z,100468.16
2023-04-22T07:35:26.376Z,100468.30
2023-04-22T07:37:58.464Z,100466.77
2023-04-22T07:40:30.641Z,100468.90
2023-04-22T07:43:03.822Z,100465.77
2023-04-22T07:45:36.087Z,100464.52
2023-04-22T07:48:08.430Z,100464.52
2023-04-22T07:50:40.775Z,100465.38
2023-04-22T07:53:13.515Z,100460.58
2023-04-22T07:55:44.109Z,100460.88
2023-04-22T07:58:16.573Z,100458.45
2023-04-22T08:00:49.073Z,100458.38
2023-04-22T08:03:22.524Z,100464.00
2023-04-22T08:05:56.797Z,100460.17
2023-04-22T08:08:29.079Z,100463.79
2023-04-22T08:11:01.221Z,100462.96
2023-04-22T08:13:33.572Z,100455.50
2023-04-22T08:16:07.522Z,100460.73
2023-04-22T08:18:40.104Z,100460.50
2023-04-22T08:21:12.365Z,100460.48
2023-04-22T08:23:44.521Z,100459.73
2023-04-22T08:26:16.976Z,100457.86
2023-04-22T08:28:48.968Z,100456.08
2023-04-22T08:31:20.943Z,100457.59
2023-04-22T08:33:53.792Z,100452.25
2023-04-22T08:36:27.648Z,100452.67
2023-04-22T08:39:00.399Z,100448.31
2023-04-22T08:41:33.291Z,100446.77
2023-04-22T08:44:06.424Z,100444.13
2023-04-22T08:46:40.315Z,100438.20
2023-04-22T08:49:13.939Z,100437.02
2023-04-22T08:51:47.168Z,100436.96
2023-04-22T08:54:18.949Z,100435.53
2023-04-22T08:56:54.150Z,100433.00
2023-04-22T08:59:27.118Z,100433.45
2023-04-22T09:02:01.096Z,100434.85
2023-04-22T09:04:35.007Z,100427.02
2023-04-22T09:07:08.499Z,100433.62
2023-04-22T09:09:46.012Z,100434.56
2023-04-22T09:12:19.042Z,100439.81
2023-04-22T09:14:52.948Z,100441.06
2023-04-22T09:17:34.562Z,100440.14
2023-04-22T09:20:10.046Z,100435.14
2023-04-22T09:22:47.215Z,100431.34
2023-04-22T09:25:20.881Z,100433.41
2023-04-22T09:27:55.040Z,100429.37
2023-04-22T09:30:33.087Z,100429.89
2023-04-22T09:33:08.718Z,100427.02
2023-04-22T09:35:43.972Z,100428.81
2023-04-22T09:38:19.827Z,100424.68
2023-04-22T09:40:53.382Z,100423.64
2023-04-22T09:43:26.209Z,100427.39
2023-04-22T09:46:03.095Z,100421.11
2023-04-22T09:48:35.405Z,100417.22
2023-04-22T09:51:18.156Z,100417.38
2023-04-22T09:54:00.457Z,100416.94
2023-04-22T09:56:50.608Z,100411.77
2023-04-22T09:59:28.223Z,100406.16
2023-04-22T10:02:04.287Z,100403.17
2023-04-22T10:04:38.866Z,100406.94
2023-04-22T10:07:11.490Z,100408.48
2023-04-22T10:10:00.752Z,100400.15
2023-04-22T10:12:35.951Z,100393.78
2023-04-22T10:15:10.683Z,100399.83
2023-04-22T10:17:46.289Z,100390.98
2023-04-22T10:20:21.058Z,100395.01
2023-04-22T10:22:55.968Z,100398.95
2023-04-22T10:25:30.256Z,100396.53
2023-04-22T10:28:07.808Z,100387.16
2023-04-22T10:30:41.528Z,100389.22
2023-04-22T10:33:40.698Z,100388.45
2023-04-22T10:36:18.613Z,100384.48
2023-04-22T10:39:19.405Z,100384.98
2023-04-22T10:42:10.009Z,100381.61
2023-04-22T10:44:53.107Z,100378.64
2023-04-22T10:47:33.175Z,100380.88
2023-04-22T10:50:28.486Z,100378.92
2023-04-22T10:53:03.363Z,100385.52
2023-04-22T10:55:54.021Z,100376.63
2023-04-22T10:58:27.414Z,100371.25
2023-04-22T11:01:03.365Z,100365.55
2023-04-22T11:03:35.866Z,100360.10
2023-04-22T11:06:19.706Z,100363.83
2023-04-22T11:09:08.877Z,100360.41
2023-04-22T11:11:41.463Z,100361.23
2023-04-22T11:14:14.030Z,100351.91
2023-04-22T11:16:52.864Z,100350.20
2023-04-22T11:19:25.220Z,100350.73
2023-04-22T11:21:58.784Z,100346.06
2023-04-22T11:24:31.213Z,100343.14
2023-04-22T11:27:03.422Z,100342.95
2023-04-22T11:29:36.101Z,100339.31
2023-04-22T11:32:11.329Z,100338.54
2023-04-22T11:34:43.729Z,100333.13
2023-04-22T11:37:19.781Z,100325.95
2023-04-22T11:40:13.564Z,100322.22
2023-04-22T11:42:45.061Z,100324.52
2023-04-22T11:45:18.591Z,100322.45
2023-04-22T11:47:53.062Z,100319.13
2023-04-22T11:50:28.121Z,100318.82
2023-04-22T11:53:02.346Z,100318.44
2023-04-22T11:55:37.503Z,100314.31
2023-04-22T11:58:14.972Z,100315.73
2023-04-22T12:00:49.288Z,100320.29
2023-04-22T12:03:24.681Z,100314.60
2023-04-22T12:06:00.291Z,100311.48
2023-04-22T12:08:36.518Z,100303.14
2023-04-22T12:11:10.669Z,100305.73
2023-04-22T12:13:47.288Z,100300.54
2023-04-22T12:16:20.634Z,100307.88
2023-04-22T12:18:53.937Z,100293.25
2023-04-22T12:21:28.635Z,100291.04
2023-04-22T12:24:04.224Z,100291.52
2023-04-22T12:26:37.741Z,100286.21
2023-04-22T12:29:09.783Z,100283.94
2023-04-22T12:31:42.078Z,100284.54
2023-04-22T12:34:14.006Z,100279.10
2023-04-22T12:36:46.057Z,100277.84
2023-04-22T12:39:18.928Z,100280.64
2023-04-22T12:41:51.184Z,100274.80
2023-04-22T12:44:24.510Z,100269.83
2023-04-22T12:46:57.667Z,100269.36
2023-04-22T12:49:29.572Z,100263.80
2023-04-22T12:52:01.540Z,100263.71
2023-04-22T12:54:33.247Z,100260.34
2023-04-22T12:57:05.199Z,100259.08
2023-04-22T12:59:37.115Z,100253.35
2023-04-22T13:02:09.032Z,100251.83
2023-04-22T13:04:41.482Z,100248.20
2023-04-22T13:07:13.722Z,100243.92
2023-04-22T13:09:46.144Z,100239.25
2023-04-22T13:12:18.056Z,100237.96
2023-04-22T13:14:50.172Z,100233.66
2023-04-22T13:17:22.245Z,100234.09
2023-04-22T13:19:54.158Z,100230.98
2023-04-22T13:22:26.345Z,100221.48
2023-04-22T13:24:58.661Z,100221.88
2023-04-22T13:27:30.566Z,100216.70
2023-04-22T13:30:02.507Z,100217.45
2023-04-22T13:32:34.402Z,100206.18
2023-04-22T13:35:07.977Z,100212.90
2023-04-22T13:37:40.420Z,100211.14
2023-04-22T13:40:13.627Z,100204.48
2023-04-22T13:42:45.803Z,100202.40
2023-04-22T13:45:18.153Z,100202.07
2023-04-22T13:47:50.369Z,100202.52
2023-04-22T13:50:22.633Z,100199.16
2023-04-22T13:53:00.305Z,100205.45
2023-04-22T13:55:34.285Z,100194.91
2023-04-22T13:58:10.811Z,100195.52
2023-04-22T14:00:47.233Z,100194.56
2023-04-22T14:03:19.749Z,100191.61
2023-04-22T14:05:52.802Z,100191.03
2023-04-22T14:08:25.141Z,100180.88
2023-04-22T14:10:57.316Z,100183.21
2023-04-22T14:13:29.500Z,100188.27
2023-04-22T14:16:03.108Z,100184.44
2023-04-22T14:18:36.973Z,100175.29
2023-04-22T14:21:10.493Z,100174.55
2023-04-22T14:23:42.978Z,100169.55
2023-04-22T14:26:13.706Z,100168.45
2023-04-22T14:28:46.599Z,100172.97
2023-04-22T14:31:19.462Z,100172.05
2023-04-22T14:33:51.247Z,100170.27
2023-04-22T14:36:23.297Z,100163.73
2023-04-22T14:38:55.278Z,100165.13
2023-04-22T14:41:27.414Z,100165.31
2023-04-22T14:43:59.723Z,100166.56
2023-04-22T14:46:31.553Z,100162.24
2023-04-22T14:49:03.388Z,100159.34
2023-04-22T14:51:36.704Z,100156.82
2023-04-22T14:54:08.852Z,100161.31
2023-04-22T14:56:43.822Z,100163.83
2023-04-22T14:59:15.543Z,100167.05
2023-04-22T15:01:47.435Z,100160.67
2023-04-22T15:04:19.537Z,100163.81
2023-04-22T15:06:51.435Z,100161.63
2023-04-22T15:09:23.514Z,100156.80
2023-04-22T15:11:56.523Z,100153.66
2023-04-22T15:14:28.483Z,100153.89
2023-04-22T15:17:00.918Z,100151.46
2023-04-22T15:19:31.226Z,100151.24
2023-04-22T15:22:03.012Z,100148.93
2023-04-22T15:24:34.711Z,100146.73
2023-04-22T15:27:06.758Z,100148.27
2023-04-22T15:29:38.902Z,100144.74
2023-04-22T15:32:09.557Z,100147.18
2023-04-22T15:34:41.308Z,100145.98
2023-04-22T15:37:14.617Z,100145.38
2023-04-22T15:39:46.648Z,100141.27
2023-04-22T15:42:18.449Z,100135.64
2023-04-22T15:44:50.244Z,100139.98
2023-04-22T15:47:22.064Z,100137.73
2023-04-22T15:49:54.007Z,100143.10
2023-04-22T15:52:26.358Z,100139.27
2023-04-22T15:54:58.186Z,100137.64
2023-04-22T15:57:34.389Z,100137.38
2023-04-22T16:00:13.165Z,100129.96
2023-04-22T16:02:54.905Z,100130.88
2023-04-22T16:05:29.167Z,100126.29
2023-04-22T16:08:01.485Z,100125.79
2023-04-22T16:10:34.291Z,100121.80
2023-04-22T16:13:06.146Z,100117.38
2023-04-22T16:15:39.662Z,100116.97
2023-04-22T16:18:13.450Z,100116.73
2023-04-22T16:20:45.893Z,100113.79
2023-04-22T16:23:17.683Z,100113.47
2023-04-22T16:25:50.351Z,100109.66
2023-04-22T16:28:22.629Z,100107.88
2023-04-22T16:30:52.992Z,100107.17
2023-04-22T16:33:25.554Z,100103.38
2023-04-22T16:35:58.014Z,100104.21
2023-04-22T16:38:30.093Z,100105.69
2023-04-22T16:41:01.871Z,100099.76
2023-04-22T16:43:33.838Z,100097.96
2023-04-22T16:46:06.346Z,100090.09
2023-04-22T16:48:38.650Z,100087.02
2023-04-22T16:51:10.901Z,100083.60
2023-04-22T16:53:42.718Z,100082.61
2023-04-22T16:56:14.382Z,100081.46
2023-04-22T16:58:46.790Z,100078.19
2023-04-22T17:01:18.611Z,100077.36
2023-04-22T17:03:51.079Z,100072.56
2023-04-22T17:06:24.128Z,100073.10
2023-04-22T17:08:58.162Z,100071.94
2023-04-22T17:11:32.316Z,100067.57
2023-04-22T17:14:04.645Z,100062.71
2023-04-22T17:16:37.354Z,100057.08
2023-04-22T17:19:09.347Z,100055.02
2023-04-22T17:21:41.766Z,100051.16
2023-04-22T17:24:13.964Z,100047.52
2023-04-22T17:26:45.691Z,100048.42
2023-04-22T17:29:21.579Z,100050.04
2023-04-22T17:31:53.948Z,100047.55
2023-04-22T17:34:25.947Z,100046.77
2023-04-22T17:36:57.932Z,100046.45
2023-04-22T17:39:32.587Z,100047.13
2023-04-22T17:42:04.542Z,100043.35
2023-04-22T17:44:36.706Z,100051.85
2023-04-22T17:47:08.619Z,100051.08
2023-04-22T17:49:41.565Z,100052.98
2023-04-22T17:52:13.745Z,100048.80
2023-04-22T17:54:46.253Z,100048.36
2023-04-22T17:57:18.675Z,100048.05
2023-04-22T17:59:50.476Z,100054.51
2023-04-22T18:02:23.394Z,100050.41
2023-04-22T18:04:55.396Z,100052.24
2023-04-22T18:07:27.267Z,100051.99
2023-04-22T18:09:59.597Z,100052.48
2023-04-22T18:12:31.879Z,100056.29
2023-04-22T18:15:04.993Z,100053.38
2023-04-22T18:17:37.000Z,100052.51
2023-04-22T18:20:18.136Z,100056.58
2023-04-22T18:22:53.644Z,100056.27
2023-04-22T18:25:26.107Z,100059.26
2023-04-22T18:27:58.255Z,100057.60
2023-04-22T18:30:30.961Z,100058.90
2023-04-22T18:33:05.281Z,100057.23
2023-04-22T18:35:37.105Z,100059.86
2023-04-22T18:38:09.597Z,100058.51
2023-04-22T18:40:42.325Z,100064.33
2023-04-22T18:43:13.096Z,100067.11
2023-04-22T18:45:45.772Z,100066.80
2023-04-22T18:48:18.690Z,100069.77
2023-04-22T18:50:49.298Z,100071.00
2023-04-22T18:53:21.807Z,100069.61
2023-04-22T18:55:53.547Z,100068.97
2023-04-22T18:58:26.021Z,100067.48
2023-04-22T19:00:58.122Z,100066.33
2023-04-22T19:03:30.847Z,100061.48
2023-04-22T19:06:03.162Z,100062.23
2023-04-22T19:08:35.424Z,100057.05
2023-04-22T19:11:08.090Z,100064.09
2023-04-22T19:13:40.409Z,100060.83
2023-04-22T19:16:12.975Z,100059.11
2023-04-22T19:18:45.125Z,100055.86
2023-04-22T19:21:19.773Z,100055.77
2023-04-22T19:23:53.053Z,100051.55
2023-04-22T19:26:26.518Z,100051.04
2023-04-22T19:28:58.664Z,100051.92
2023-04-22T19:31:32.168Z,100046.10
2023-04-22T19:34:04.278Z,100049.98
2023-04-22T19:36:36.423Z,100050.30
2023-04-22T19:39:09.836Z,100046.85
2023-04-22T19:41:41.958Z,100047.10
2023-04-22T19:44:14.122Z,100046.87
2023-04-22T19:46:45.958Z,100049.14
2023-04-22T19:49:19.051Z,100048.19
2023-04-22T19:51:52.513Z,100047.45
2023-04-22T19:54:28.504Z,100048.59
2023-04-22T19:57:02.232Z,100049.88
2023-04-22T19:59:35.397Z,100048.42
2023-04-22T20:02:09.636Z,100044.46
2023-04-22T20:04:45.229Z,100043.35
2023-04-22T20:07:18.402Z,100043.66
2023-04-22T20:09:53.039Z,100035.90
2023-04-22T20:12:28.686Z,100042.02
2023-04-22T20:15:01.901Z,100040.35
2023-04-22T20:17:38.544Z,100039.45
2023-04-22T20:20:15.643Z,100039.12
2023-04-22T20:22:49.640Z,100037.36
2023-04-22T20:25:23.485Z,100038.02
2023-04-22T20:27:56.395Z,100036.25
2023-04-22T20:30:27.205Z,100031.55
2023-04-22T20:33:00.475Z,100029.80
2023-04-22T20:35:35.936Z,100029.48
2023-04-22T20:38:09.051Z,100031.34
2023-04-22T20:40:41.608Z,100032.33
2023-04-22T20:43:12.997Z,100030.44
2023-04-22T20:45:44.950Z,100028.66
2023-04-22T20:48:17.946Z,100027.75
2023-04-22T20:50:50.973Z,100030.23
2023-04-22T20:53:23.434Z,100031.99
2023-04-22T20:55:55.297Z,100031.12
2023-04-22T20:58:28.187Z,100032.19
2023-04-22T21:00:58.582Z,100030.20
2023-04-22T21:03:31.510Z,100027.91
2023-04-22T21:06:05.125Z,100028.02
2023-04-22T21:08:40.448Z,100028.70
2023-04-22T21:11:13.477Z,100026.29
2023-04-22T21:13:45.783Z,100026.56
2023-04-22T21:16:23.862Z,100024.33
2023-04-22T21:18:59.226Z,100023.17
2023-04-22T21:21:34.950Z,100025.33
2023-04-22T21:24:08.093Z,100024.44
2023-04-22T21:26:40.213Z,100022.48
2023-04-22T21:29:12.840Z,100021.71
2023-04-22T21:31:43.624Z,100024.83
2023-04-22T21:34:17.585Z,100020.31
2023-04-22T21:36:49.586Z,100020.14
2023-04-22T21:39:22.300Z,100020.52
2023-04-22T21:41:52.640Z,100019.63
2023-04-22T21:44:24.648Z,100020.60
2023-04-22T21:46:56.698Z,100020.63
2023-04-22T21:49:28.554Z,100017.56
2023-04-22T21:52:00.994Z,100020.18
2023-04-22T21:54:32.977Z,100020.52
2023-04-22T21:57:05.076Z,100018.23
2023-04-22T21:59:36.953Z,100018.69
2023-04-22T22:02:08.861Z,100020.41
2023-04-22T22:04:41.598Z,100016.73
2023-04-22T22:07:14.678Z,100018.33
2023-04-22T22:09:47.411Z,100018.54
2023-04-22T22:12:17.730Z,100021.38
2023-04-22T22:14:49.482Z,100020.28
2023-04-22T22:17:21.305Z,100019.34
2023-04-22T22:19:53.132Z,100017.55
2023-04-22T22:22:25.003Z,100013.85
2023-04-22T22:24:56.799Z,100012.25
2023-04-22T22:27:28.689Z,100011.77
2023-04-22T22:30:01.240Z,100011.58
2023-04-22T22:32:33.026Z,100010.39
2023-04-22T22:35:05.021Z,100010.64
2023-04-22T22:37:37.724Z,100006.16
2023-04-22T22:40:11.838Z,100010.95
2023-04-22T22:42:43.718Z,100008.80
2023-04-22T22:45:15.562Z,100009.63
2023-04-22T22:47:47.467Z,100009.16
2023-04-22T22:50:19.269Z,100008.10
2023-04-22T22:52:51.123Z,100004.04
2023-04-22T22:55:23.056Z,100002.30
2023-04-22T22:57:55.740Z,100006.00
2023-04-22T23:00:27.657Z,100002.16
2023-04-22T23:02:59.718Z,100000.58
2023-04-22T23:05:32.489Z,100001.48
2023-04-22T23:08:04.368Z,100001.46
2023-04-22T23:10:36.412Z,100000.17
2023-04-22T23:13:08.219Z,100000.80
2023-04-22T23:15:40.378Z,100001.83
2023-04-22T23:18:13.881Z,99993.31
2023-04-22T23:20:47.257Z,99994.23
2023-04-22T23:23:20.747Z,99993.50
2023-04-22T23:25:53.569Z,99992.05
2023-04-22T23:28:24.481Z,99993.33
2023-04-22T23:30:58.237Z,99988.65
2023-04-22T23:33:32.855Z,99985.49
2023-04-22T23:36:06.425Z,99987.45
2023-04-22T23:38:38.280Z,99981.77
2023-04-22T23:41:10.056Z,99975.80
2023-04-22T23:43:41.888Z,99970.06
2023-04-22T23:46:15.232Z,99969.40
2023-04-22T23:48:48.303Z,99969.14
2023-04-22T23:51:20.183Z,99969.45
2023-04-22T23:53:52.021Z,99964.88
2023-04-22T23:56:25.087Z,99964.15
2023-04-22T23:58:57.850Z,99961.86
